Sunday, November 19, 2017, 11:17 PM EST
Back to Local

KMRB, Martinsburg Eastern Wv Reg

Location: Martinsburg, WV, United States Lat: 39.4
Local Time: 11:17 PM EST ( 4:17 GMT) Lon: -77.983
Time Zone: US/Eastern Elev: 557 ft

Show me the last for .
Show Decoded

2017-11-19 22:53 METAR KMRB 200353Z AUTO 30018G27KT 10SM SCT065 04/M04 A2994 RMK AO2 PK WND
                 28027/0347 SLP142 T00391039 $ =
2017-11-19 21:53 METAR KMRB 200253Z AUTO 28015G23KT 10SM FEW031 BKN039 OVC060 04/M02 A2993 RMK
                 AO2 PK WND 30026/0214 RAB04E18 SLP138 P0000 60000 T00391022 53019 $ =
2017-11-19 20:53 METAR KMRB 200153Z AUTO 28012G22KT 10SM OVC043 05/M03 A2990 RMK AO2 SLP128
                 T00501033 $ =
2017-11-19 19:53 METAR KMRB 200053Z AUTO 28011G16KT 10SM BKN046 BKN055 OVC070 05/M03 A2988 RMK
                 AO2 SLP121 T00501033 $ =
2017-11-19 18:53 METAR KMRB 192353Z AUTO 30005KT 10SM BKN041 BKN050 OVC080 05/M02 A2987 RMK AO2
                 RAB2256E07 SLP118 P0000 60000 T00501017 10072 20050 53022 $ =
2017-11-19 17:53 METAR KMRB 192253Z AUTO 29006KT 10SM BKN047 OVC070 06/M03 A2985 RMK AO2 SLP109
                 T00561028 $ =
2017-11-19 16:53 METAR KMRB 192153Z AUTO 28009KT 10SM OVC055 06/M04 A2982 RMK AO2 SLP101
                 T00561044 $ =
2017-11-19 15:53 METAR KMRB 192053Z AUTO 29013G24KT 10SM SCT047 OVC065 06/M04 A2981 RMK AO2 PK
                 WND 28029/1955 RAB14E23 SLP095 P0000 60000 T00611044 53018 $ =
2017-11-19 14:53 METAR KMRB 191953Z 28017G24KT 10SM OVC050 07/M03 A2977 RMK AO2 SLP082 T00671033
                 $ =
2017-11-19 13:53 METAR KMRB 191853Z 30015G26KT 10SM OVC050 07/M04 A2977 RMK AO2 PK WND 30032/1832
                 SLP081 T00671044 $ =
2017-11-19 12:53 METAR KMRB 191753Z 28014KT 10SM OVC047 08/M03 A2975 RMK AO2 PK WND 28026/1706
                 SLP076 T00781028 10094 20061 50013 $ =
2017-11-19 11:53 METAR KMRB 191653Z 30018G27KT 10SM OVC044 08/M03 A2975 RMK AO2 PK WND 28029/1603
                 SLP076 T00781033 $ =
2017-11-19 10:53 METAR KMRB 191553Z 28018G24KT 10SM OVC044 09/M02 A2975 RMK AO2 SLP074 T00891017
                 $ =
2017-11-19 09:53 METAR KMRB 191453Z 26013G19KT 10SM BKN040 OVC050 07/00 A2971 RMK AO2 SLP064
                 T00720000 51037 $ =
2017-11-19 08:53 METAR KMRB 191353Z 29015G22KT 10SM BKN041 OVC047 07/M01 A2968 RMK AO2 SLP052
                 T00671006 $ =
2017-11-19 07:53 METAR KMRB 191253Z 27017G25KT 10SM BKN042 07/M01 A2965 RMK AO2 PK WND 30027/1211
                 PRESRR SLP041 T00671011 $ =
2017-11-19 06:53 METAR KMRB 191153Z AUTO 28020G27KT 10SM FEW043 07/M01 A2960 RMK AO2 PK WND
                 27035/1140 SLP026 60000 70012 T00671011 10150 20067 51072 $ =
2017-11-19 05:53 METAR KMRB 191053Z AUTO 27014G31KT 10SM FEW044 07/M01 A2957 RMK AO2 PK WND
                 28034/1013 SLP015 T00721011 $ =
2017-11-19 04:53 METAR KMRB 190953Z AUTO 28018G29KT 10SM BKN043 08/01 A2950 RMK AO2 PK WND
                 28042/0926 PRESRR SLP990 T00830006 $ =
2017-11-19 03:53 METAR KMRB 190853Z AUTO 27027G38KT 10SM FEW041 11/04 A2939 RMK AO2 PK WND
                 28046/0825 RAB0757E04 SLP952 P0000 60000 T01110039 53025 $ =
2017-11-19 02:53 METAR KMRB 190753Z AUTO 23010G19KT 10SM FEW050 BKN065 OVC080 15/10 A2930 RMK AO2
                 RAB30E39 SLP922 P0000 T01500100 $ =
2017-11-19 01:53 METAR KMRB 190653Z AUTO 20007KT 10SM SCT120 13/09 A2927 RMK AO2 PRESRR SLP910
                 T01330094 $ =
2017-11-19 00:53 METAR KMRB 190553Z AUTO 18007KT 10SM SCT049 SCT070 OVC100 13/09 A2931 RMK AO2
                 RAB11E52 SLP926 P0003 60003 T01280094 10133 20044 56023 $ =
2017-11-18 23:53 METAR KMRB 190453Z AUTO 18006KT 10SM FEW060 SCT080 BKN100 13/08 A2933 RMK AO2
                 SLP933 T01330083 401331033 $ =

Support USWX by starting your Amazon purchase here.